Flight Track Log - Related Links

Times and Time Zones

All times are in EDT time to prevent confusion due to time zone crossing. See the SWA757 flight status page for this flight to view local times or setup timezone preferences in your user account.

Time Position Orientation Groundspeed Altitude Reporting Facility
EDT Latitude Longitude Course Direction KTS MPH feet Rate Location/Type
Fri 11:14:04 PM 37.4000 -121.9667 141° Southeast 160 184 2,300  Level Northern Cal TRACON
Fri 11:15:05 PM 37.4333 -121.9667 360° North 202 232 4,900 1,400 Climbing Northern Cal TRACON
Fri 11:16:04 PM 37.4167 -121.9000 107° East 234 269 5,100 908 Climbing Northern Cal TRACON
Fri 11:17:04 PM 37.3667 -121.8333 133° Southeast 247 284 6,700 1,440 Climbing Northern Cal TRACON
Fri 11:17:19 PM 37.3675 -121.8328 28° Northeast 234 269 6,900 3,158 Climbing Oakland Center
Fri 11:18:20 PM 37.3083 -121.7633 137° Southeast 265 305 10,700 2,951 Climbing Oakland Center
Fri 11:19:00 PM 36.8964 -121.4172 141° Southeast  Level Estimated
Fri 11:19:21 PM 37.2369 -121.6817 138° Southeast 356 410 12,900  Level Oakland Center
Fri 11:20:22 PM 37.1581 -121.5936 138° Southeast 380 437 16,100 3,268 Climbing Oakland Center
Fri 11:21:24 PM 37.0636 -121.4861 138° Southeast 406 467 19,600 3,024 Climbing Oakland Center
Fri 11:22:25 PM 36.9731 -121.3906 140° Southeast 425 489 22,300 2,607 Climbing Oakland Center
Fri 11:23:26 PM 36.8803 -121.2878 138° Southeast 442 509 24,900 2,164 Climbing Oakland Center
Fri 11:24:27 PM 36.7911 -121.1928 140° Southeast 461 531 26,700 1,918 Climbing Oakland Center
Fri 11:25:28 PM 36.6897 -121.0811 139° Southeast 481 554 28,800 2,115 Climbing Oakland Center
Fri 11:26:29 PM 36.5847 -120.9722 140° Southeast 488 562 31,000 2,262 Climbing Oakland Center
Fri 11:27:30 PM 36.4597 -120.8364 139° Southeast 496 571 33,400 2,016 Climbing Oakland Center
Fri 11:28:31 PM 36.3567 -120.7236 139° Southeast 495 570 35,100 1,721 Climbing Oakland Center
Fri 11:29:32 PM 36.2517 -120.6156 140° Southeast 491 565 36,900 1,574 Climbing Oakland Center
Fri 11:30:33 PM 36.1472 -120.5044 139° Southeast 492 566 38,300 1,082 Climbing Oakland Center
Fri 11:31:34 PM 36.0428 -120.3908 139° Southeast 498 573 39,100 639 Climbing Oakland Center
Fri 11:32:35 PM 35.9386 -120.2831 140° Southeast 492 566 39,600 689 Climbing Oakland Center
Fri 11:33:36 PM 35.8311 -120.1703 140° Southeast 503 579 40,500 689 Climbing Oakland Center
Fri 11:34:37 PM 35.7231 -120.0583 140° Southeast 503 579 41,000 246 Climbing Oakland Center
Fri 11:35:38 PM 35.6142 -119.9472 140° Southeast 503 579 41,000  Level Oakland Center
Fri 11:36:39 PM 35.4975 -119.8500 146° Southeast 499 574 41,000  Level Oakland Center
Fri 11:37:53 PM 35.3606 -119.7306 145° Southeast 502 578 41,000  Level Los Angeles Center
Fri 11:38:55 PM 35.2461 -119.6336 145° Southeast 499 574 41,000  Level Los Angeles Center
Fri 11:39:56 PM 35.1339 -119.5364 145° Southeast 493 567 41,000  Level Los Angeles Center
Fri 11:40:58 PM 35.0208 -119.4411 145° Southeast 494 568 41,000  Level Los Angeles Center
Fri 11:42:00 PM 34.8867 -119.3264 145° Southeast 492 566 41,000  Level Los Angeles Center
Fri 11:43:01 PM 34.7739 -119.2306 145° Southeast 492 566 41,000  Level Los Angeles Center
Fri 11:44:03 PM 34.6606 -119.1347 145° Southeast 496 571 41,000  Level Los Angeles Center
Fri 11:45:04 PM 34.5550 -119.0494 146° Southeast 495 570 41,000  Level Los Angeles Center
Fri 11:46:06 PM 34.4419 -118.9542 145° Southeast 496 571 41,000  Level Los Angeles Center
Fri 11:47:07 PM 34.3083 -118.8328 143° Southeast 502 578 41,000  Level Los Angeles Center
Fri 11:48:09 PM 34.2031 -118.7189 138° Southeast 506 582 41,000  Level Los Angeles Center
Fri 11:49:11 PM 34.0967 -118.6069 139° Southeast 508 585 41,000 -98 Level Los Angeles Center
Fri 11:50:12 PM 33.9897 -118.4928 138° Southeast 512 589 40,800 -1,415 Descending Los Angeles Center
Fri 11:51:14 PM 33.8858 -118.3733 136° Southeast 515 593 38,100 -2,732 Descending Los Angeles Center
Fri 11:52:15 PM 33.7886 -118.2539 134° Southeast 513 590 35,200 -3,171 Descending Los Angeles Center
Fri 11:53:17 PM 33.6900 -118.1208 132° Southeast 493 567 31,600 -3,220 Descending Los Angeles Center
Fri 11:54:18 PM 33.5997 -118.0056 133° Southeast 475 547 28,600 -2,927 Descending Los Angeles Center
Fri 11:55:20 PM 33.5097 -117.8908 133° Southeast 473 544 25,600 -3,120 Descending Los Angeles Center
Fri 11:55:58 PM 33.4500 -117.8000 128° Southeast 457 526 23,400 -3,184 Descending Southern California TRACON
Fri 11:56:58 PM 33.3500 -117.7000 140° Southeast 458 527 20,400 -2,612 Descending Southern California TRACON
Fri 11:57:23 PM 33.3306 -117.6686 127° Southeast 463 533 19,700 -2,600 Descending Los Angeles Center
Fri 11:57:58 PM 33.2667 -117.5833 132° Southeast 441 507 17,800 -2,653 Descending Southern California TRACON
Fri 11:58:58 PM 33.1667 -117.5000 145° Southeast 425 489 15,500 -2,300 Descending Southern California TRACON
Fri 11:59:58 PM 33.0833 -117.4333 146° Southeast 398 458 13,200 -2,292 Descending Southern California TRACON
Sat 12:00:27 AM 33.0333 -117.4081 157° South 406 467 12,100 -2,400 Descending Los Angeles Center
Sat 12:00:58 AM 32.9833 -117.3667 145° Southeast 387 445 10,800 -1,174 Descending Southern California TRACON
Sat 12:01:59 AM 32.9167 -117.2833 134° Southeast 330 380 10,300 -843 Descending Southern California TRACON
Sat 12:02:59 AM 32.8500 -117.2167 140° Southeast 321 369 9,100 -1,097 Descending Southern California TRACON
Sat 12:03:32 AM 32.8292 -117.1831 126° Southeast 309 356 8,600 -1,263 Descending Los Angeles Center
Sat 12:04:34 AM 32.7708 -117.1108 134° Southeast 294 338 7,100 -1,448 Descending Los Angeles Center
Sat 12:04:59 AM 32.7667 -117.0667 96° East 282 325 6,500 -1,482 Descending Southern California TRACON
Sat 12:05:59 AM 32.7500 -116.9833 103° East 279 321 5,000 -800 Descending Southern California TRACON
Sat 12:06:59 AM 32.7000 -116.9333 140° Southeast 263 303 4,900 -450 Descending Southern California TRACON
Sat 12:07:59 AM 32.6833 -117.0000 253° West 219 252 4,100 -850 Descending Southern California TRACON
Sat 12:08:59 AM 32.7000 -117.0667 287° West 172 198 3,200 -1,250 Descending Southern California TRACON
Sat 12:09:59 AM 32.7167 -117.1167 292° West 146 168 1,600 -1,398 Descending Southern California TRACON
Sat 12:10:42 AM 32.7217 -117.1411 284° West 145 167 800 -1,116 Descending Los Angeles Center
Sat 12:13:00 AM 32.7333 -117.1833 275° West  Level FlightAware Approximate
Sat 12:20:00 AM 32.7336 -117.1897 275° West  Level Estimated

Login

Don't have an account? Register now (free) for customized features, flight alerts, and more!